createdAt,value
2017-12-15T00:00:44.094Z,92344.96
2017-12-15T00:03:12.151Z,92342.50
2017-12-15T00:05:40.494Z,92335.34
2017-12-15T00:08:08.838Z,92338.49
2017-12-15T00:10:37.192Z,92329.41
2017-12-15T00:13:05.574Z,92326.12
2017-12-15T00:15:33.927Z,92330.21
2017-12-15T00:18:02.261Z,92328.06
2017-12-15T00:20:30.603Z,92329.94
2017-12-15T00:22:58.953Z,92337.63
2017-12-15T00:25:27.331Z,92342.45
2017-12-15T00:27:55.671Z,92337.49
2017-12-15T00:30:24.011Z,92337.27
2017-12-15T00:32:52.352Z,92348.55
2017-12-15T00:35:20.701Z,92342.21
2017-12-15T00:37:49.076Z,92344.56
2017-12-15T00:40:17.420Z,92349.03
2017-12-15T00:42:45.762Z,92339.13
2017-12-15T00:45:14.116Z,92345.81
2017-12-15T00:47:42.458Z,92337.11
2017-12-15T00:50:10.852Z,92345.56
2017-12-15T00:52:39.201Z,92343.36
2017-12-15T00:55:07.553Z,92348.96
2017-12-15T00:57:36.787Z,92347.38
2017-12-15T01:00:05.152Z,92348.02
2017-12-15T01:02:33.644Z,92344.48
2017-12-15T01:05:01.974Z,92343.42
2017-12-15T01:07:30.341Z,92356.28
2017-12-15T01:09:58.691Z,92359.90
2017-12-15T01:12:27.030Z,92355.72
2017-12-15T01:14:55.404Z,92359.38
2017-12-15T01:17:23.736Z,92361.44
2017-12-15T01:19:52.074Z,92362.56
2017-12-15T01:22:20.425Z,92362.72
2017-12-15T01:24:48.768Z,92366.34
2017-12-15T01:27:17.292Z,92367.38
2017-12-15T01:29:45.632Z,92368.37
2017-12-15T01:32:13.967Z,92369.80
2017-12-15T01:34:42.311Z,92372.39
2017-12-15T01:37:10.676Z,92369.13
2017-12-15T01:39:39.062Z,92380.05
2017-12-15T01:42:07.412Z,92378.53
2017-12-15T01:44:35.747Z,92379.31
2017-12-15T01:47:04.092Z,92390.92
2017-12-15T01:49:32.426Z,92388.50
2017-12-15T01:52:00.816Z,92384.87
2017-12-15T01:54:29.161Z,92378.33
2017-12-15T01:56:57.511Z,92388.18
2017-12-15T01:59:25.850Z,92384.46
2017-12-15T02:01:54.212Z,92389.77
2017-12-15T02:04:22.597Z,92387.22
2017-12-15T02:06:50.942Z,92397.02
2017-12-15T02:09:19.295Z,92396.38
2017-12-15T02:11:47.635Z,92391.03
2017-12-15T02:14:15.986Z,92391.84
2017-12-15T02:16:44.379Z,92392.03
2017-12-15T02:19:12.719Z,92399.33
2017-12-15T02:21:41.055Z,92400.03
2017-12-15T02:24:09.406Z,92400.61
2017-12-15T02:26:37.762Z,92396.00
2017-12-15T02:29:06.155Z,92399.12
2017-12-15T02:31:34.504Z,92406.02
2017-12-15T02:34:02.838Z,92400.12
2017-12-15T02:36:31.187Z,92400.66
2017-12-15T02:38:59.519Z,92406.16
2017-12-15T02:41:27.899Z,92412.14
2017-12-15T02:43:56.247Z,92409.98
2017-12-15T02:46:24.596Z,92414.52
2017-12-15T02:48:52.936Z,92415.66
2017-12-15T02:51:21.283Z,92419.59
2017-12-15T02:53:49.767Z,92427.17
2017-12-15T02:56:18.123Z,92425.59
2017-12-15T02:58:46.527Z,92421.77
2017-12-15T03:01:14.870Z,92427.44
2017-12-15T03:03:43.207Z,92428.08
2017-12-15T03:06:11.679Z,92424.32
2017-12-15T03:08:40.019Z,92428.50
2017-12-15T03:11:08.384Z,92428.59
2017-12-15T03:13:36.731Z,92442.56
2017-12-15T03:16:05.059Z,92443.77
2017-12-15T03:18:33.429Z,92447.31
2017-12-15T03:21:01.775Z,92445.52
2017-12-15T03:23:30.129Z,92452.19
2017-12-15T03:25:58.480Z,92461.45
2017-12-15T03:28:26.838Z,92463.55
2017-12-15T03:30:55.202Z,92468.78
2017-12-15T03:33:23.544Z,92474.55
2017-12-15T03:35:51.905Z,92477.45
2017-12-15T03:38:20.243Z,92487.42
2017-12-15T03:40:48.590Z,92492.53
2017-12-15T03:43:16.957Z,92493.87
2017-12-15T03:45:46.010Z,92496.50
2017-12-15T03:48:14.342Z,92501.73
2017-12-15T03:50:42.699Z,92511.83
2017-12-15T03:53:11.038Z,92516.45
2017-12-15T03:55:39.429Z,92519.70
2017-12-15T03:58:07.796Z,92521.66
2017-12-15T04:00:38.625Z,92525.55
2017-12-15T04:03:06.962Z,92527.52
2017-12-15T04:05:35.337Z,92533.75
2017-12-15T04:08:03.699Z,92533.34
2017-12-15T04:10:32.031Z,92536.03
2017-12-15T04:13:00.586Z,92540.66
2017-12-15T04:15:28.934Z,92543.16
2017-12-15T04:17:57.411Z,92537.83
2017-12-15T04:20:25.746Z,92542.47
2017-12-15T04:22:54.086Z,92544.75
2017-12-15T04:25:22.437Z,92548.89
2017-12-15T04:27:50.772Z,92540.88
2017-12-15T04:30:19.142Z,92552.34
2017-12-15T04:32:47.494Z,92553.19
2017-12-15T04:35:15.827Z,92553.90
2017-12-15T04:37:44.210Z,92553.88
2017-12-15T04:40:12.560Z,92564.58
2017-12-15T04:42:40.912Z,92567.93
2017-12-15T04:45:09.264Z,92571.77
2017-12-15T04:47:37.615Z,92575.48
2017-12-15T04:50:05.995Z,92580.27
2017-12-15T04:52:34.335Z,92576.22
2017-12-15T04:55:02.683Z,92579.70
2017-12-15T04:57:31.022Z,92581.28
2017-12-15T04:59:59.374Z,92578.00
2017-12-15T05:02:27.763Z,92581.45
2017-12-15T05:04:56.106Z,92588.03
2017-12-15T05:07:24.461Z,92593.07
2017-12-15T05:09:52.815Z,92598.24
2017-12-15T05:12:21.152Z,92604.06
2017-12-15T05:14:49.539Z,92610.56
2017-12-15T05:17:17.876Z,92606.42
2017-12-15T05:19:46.219Z,92605.14
2017-12-15T05:22:14.555Z,92610.05
2017-12-15T05:24:42.932Z,92606.58
2017-12-15T05:27:11.376Z,92613.81
2017-12-15T05:29:39.759Z,92619.30
2017-12-15T05:32:08.110Z,92613.55
2017-12-15T05:34:36.464Z,92611.53
2017-12-15T05:37:04.812Z,92617.94
2017-12-15T05:39:33.259Z,92615.37
2017-12-15T05:42:01.638Z,92620.33
2017-12-15T05:44:30.071Z,92620.52
2017-12-15T05:46:58.547Z,92623.16
2017-12-15T05:49:26.911Z,92622.21
2017-12-15T05:51:55.280Z,92624.09
2017-12-15T05:54:23.644Z,92626.56
2017-12-15T05:56:51.986Z,92632.50
2017-12-15T05:59:20.337Z,92629.54
2017-12-15T06:01:48.705Z,92632.67
2017-12-15T06:04:17.120Z,92639.95
2017-12-15T06:06:45.473Z,92639.48
2017-12-15T06:09:13.861Z,92640.50
2017-12-15T06:11:42.222Z,92631.66
2017-12-15T06:14:10.564Z,92647.56
2017-12-15T06:16:38.944Z,92652.87
2017-12-15T06:19:07.302Z,92655.33
2017-12-15T06:21:35.670Z,92655.53
2017-12-15T06:24:04.026Z,92650.50
2017-12-15T06:26:32.389Z,92643.70
2017-12-15T06:29:00.770Z,92645.77
2017-12-15T06:31:29.144Z,92646.14
2017-12-15T06:33:57.531Z,92656.64
2017-12-15T06:36:25.886Z,92664.31
2017-12-15T06:38:54.242Z,92660.75
2017-12-15T06:41:22.632Z,92663.18
2017-12-15T06:43:51.042Z,92667.78
2017-12-15T06:46:19.404Z,92672.62
2017-12-15T06:48:47.754Z,92677.00
2017-12-15T06:51:16.109Z,92677.50
2017-12-15T06:53:44.519Z,92671.22
2017-12-15T06:56:12.936Z,92673.52
2017-12-15T06:58:41.354Z,92674.31
2017-12-15T07:01:09.704Z,92672.64
2017-12-15T07:03:38.071Z,92674.06
2017-12-15T07:06:06.450Z,92679.41
2017-12-15T07:08:34.815Z,92683.27
2017-12-15T07:11:03.172Z,92686.58
2017-12-15T07:13:31.530Z,92684.78
2017-12-15T07:15:59.880Z,92687.98
2017-12-15T07:18:28.268Z,92688.19
2017-12-15T07:20:56.614Z,92691.78
2017-12-15T07:23:24.962Z,92694.16
2017-12-15T07:25:53.323Z,92696.61
2017-12-15T07:28:21.667Z,92702.06
2017-12-15T07:30:50.113Z,92707.65
2017-12-15T07:33:18.489Z,92715.58
2017-12-15T07:35:46.956Z,92721.05
2017-12-15T07:38:15.316Z,92718.54
2017-12-15T07:40:43.675Z,92726.36
2017-12-15T07:43:12.099Z,92737.85
2017-12-15T07:45:40.453Z,92739.64
2017-12-15T07:48:08.811Z,92743.95
2017-12-15T07:50:37.196Z,92739.61
2017-12-15T07:53:05.584Z,92743.34
2017-12-15T07:55:33.975Z,92749.63
2017-12-15T07:58:02.312Z,92751.16
2017-12-15T08:00:30.652Z,92757.41
2017-12-15T08:02:59.012Z,92754.61
2017-12-15T08:05:27.377Z,92765.23
2017-12-15T08:07:55.762Z,92769.42
2017-12-15T08:10:24.108Z,92775.69
2017-12-15T08:12:52.500Z,92779.56
2017-12-15T08:15:20.839Z,92785.18
2017-12-15T08:17:49.219Z,92789.76
2017-12-15T08:20:17.748Z,92791.97
2017-12-15T08:22:46.105Z,92795.49
2017-12-15T08:25:14.477Z,92805.16
2017-12-15T08:27:42.814Z,92812.59
2017-12-15T08:30:11.172Z,92809.69
2017-12-15T08:32:39.734Z,92823.04
2017-12-15T08:35:08.123Z,92821.07
2017-12-15T08:37:36.462Z,92825.70
2017-12-15T08:40:04.811Z,92830.11
2017-12-15T08:42:33.155Z,92834.30
2017-12-15T08:45:01.568Z,92833.55
2017-12-15T08:47:29.915Z,92844.67
2017-12-15T08:49:58.292Z,92841.05
2017-12-15T08:52:26.628Z,92841.73
2017-12-15T08:54:54.964Z,92846.27
2017-12-15T08:57:23.459Z,92847.44
2017-12-15T08:59:51.823Z,92855.09
2017-12-15T09:02:20.171Z,92857.02
2017-12-15T09:04:48.540Z,92858.81
2017-12-15T09:07:16.905Z,92865.22
2017-12-15T09:09:45.302Z,92870.48
2017-12-15T09:12:13.647Z,92870.04
2017-12-15T09:14:42.003Z,92877.81
2017-12-15T09:17:10.342Z,92871.79
2017-12-15T09:19:38.696Z,92877.96
2017-12-15T09:22:07.093Z,92879.34
2017-12-15T09:24:35.456Z,92885.13
2017-12-15T09:27:03.808Z,92894.41
2017-12-15T09:29:32.180Z,92895.02
2017-12-15T09:32:00.523Z,92904.33
2017-12-15T09:34:29.074Z,92911.88
2017-12-15T09:36:57.516Z,92903.81
2017-12-15T09:39:25.869Z,92904.77
2017-12-15T09:41:54.223Z,92903.31
2017-12-15T09:44:22.579Z,92905.27
2017-12-15T09:46:50.983Z,92901.87
2017-12-15T09:49:19.333Z,92893.02
2017-12-15T09:51:47.683Z,92886.04
2017-12-15T09:54:16.197Z,92886.17
2017-12-15T09:56:44.618Z,92894.66
2017-12-15T09:59:13.019Z,92895.05
2017-12-15T10:01:41.559Z,92896.28
2017-12-15T10:04:09.898Z,92892.53
2017-12-15T10:06:38.260Z,92903.47
2017-12-15T10:09:06.599Z,92893.27
2017-12-15T10:11:35.087Z,92898.81
2017-12-15T10:14:03.431Z,92897.08
2017-12-15T10:16:31.790Z,92893.30
2017-12-15T10:19:00.137Z,92896.63
2017-12-15T10:21:28.479Z,92896.16
2017-12-15T10:23:56.858Z,92895.32
2017-12-15T10:26:25.210Z,92899.05
2017-12-15T10:28:53.568Z,92900.66
2017-12-15T10:31:21.926Z,92901.91
2017-12-15T10:33:50.291Z,92902.28
2017-12-15T10:36:18.671Z,92899.48
2017-12-15T10:38:47.032Z,92904.10
2017-12-15T10:41:15.385Z,92897.58
2017-12-15T10:43:43.759Z,92898.13
2017-12-15T10:46:12.100Z,92893.95
2017-12-15T10:48:40.604Z,92896.11
2017-12-15T10:51:08.980Z,92897.10
2017-12-15T10:53:37.324Z,92896.25
2017-12-15T10:56:05.710Z,92899.90
2017-12-15T10:58:34.065Z,92897.08
2017-12-15T11:01:02.480Z,92901.10
2017-12-15T11:03:30.837Z,92897.14
2017-12-15T11:05:59.310Z,92903.22
2017-12-15T11:08:27.672Z,92902.91
2017-12-15T11:10:56.027Z,92900.45
2017-12-15T11:13:24.379Z,92894.72
2017-12-15T11:15:52.733Z,92897.15
2017-12-15T11:18:21.112Z,92901.56
2017-12-15T11:20:49.446Z,92904.30
2017-12-15T11:23:17.817Z,92905.27
2017-12-15T11:25:46.176Z,92908.55
2017-12-15T11:28:14.633Z,92913.03
2017-12-15T11:30:43.155Z,92900.34
2017-12-15T11:33:11.482Z,92905.75
2017-12-15T11:38:07.268Z,92898.95
2017-12-15T11:40:35.765Z,92900.17
2017-12-15T11:43:04.155Z,92905.61
2017-12-15T11:45:32.582Z,92905.69
2017-12-15T11:48:00.920Z,92900.67
2017-12-15T11:50:29.258Z,92898.66
2017-12-15T11:52:57.621Z,92897.72
2017-12-15T11:55:26.022Z,92901.27
2017-12-15T11:57:54.355Z,92897.59
2017-12-15T12:00:22.732Z,92903.05
2017-12-15T12:02:51.078Z,92896.15
2017-12-15T12:05:19.563Z,92897.84
2017-12-15T12:07:47.941Z,92892.59
2017-12-15T12:10:16.283Z,92888.17
2017-12-15T12:12:44.630Z,92881.20
2017-12-15T12:15:12.963Z,92883.53
2017-12-15T12:17:41.373Z,92874.87
2017-12-15T12:20:09.716Z,92878.77
2017-12-15T12:22:38.055Z,92881.39
2017-12-15T12:25:06.398Z,92884.22
2017-12-15T12:27:34.738Z,92873.41
2017-12-15T12:30:03.128Z,92878.05
2017-12-15T12:32:31.482Z,92872.81
2017-12-15T12:34:59.836Z,92864.43
2017-12-15T12:37:28.178Z,92874.09
2017-12-15T12:39:56.529Z,92870.03
2017-12-15T12:42:24.894Z,92869.11
2017-12-15T12:44:53.234Z,92868.77
2017-12-15T12:47:21.586Z,92878.67
2017-12-15T12:49:49.929Z,92871.19
2017-12-15T12:52:18.272Z,92869.55
2017-12-15T12:54:46.651Z,92874.30
2017-12-15T12:57:14.990Z,92864.94
2017-12-15T12:59:43.341Z,92868.61
2017-12-15T13:02:11.675Z,92870.59
2017-12-15T13:04:40.023Z,92871.20
2017-12-15T13:07:08.412Z,92872.11
2017-12-15T13:09:36.858Z,92871.75
2017-12-15T13:12:06.062Z,92871.30
2017-12-15T13:14:34.419Z,92868.82
2017-12-15T13:17:02.781Z,92877.80
2017-12-15T13:19:31.159Z,92871.80
2017-12-15T13:22:00.234Z,92879.33
2017-12-15T13:24:28.576Z,92888.30
2017-12-15T13:26:56.913Z,92882.87
2017-12-15T13:29:25.241Z,92887.83
2017-12-15T13:31:53.615Z,92895.77
2017-12-15T13:34:21.957Z,92892.56
2017-12-15T13:36:50.302Z,92900.41
2017-12-15T13:39:18.652Z,92898.92
2017-12-15T13:41:47.006Z,92899.17
2017-12-15T13:44:15.375Z,92900.27
2017-12-15T13:46:43.723Z,92907.08
2017-12-15T13:49:12.079Z,92906.34
2017-12-15T13:51:40.423Z,92908.97
2017-12-15T13:54:08.784Z,92914.70
2017-12-15T13:56:37.214Z,92919.67
2017-12-15T13:59:05.569Z,92920.55
2017-12-15T14:01:33.944Z,92921.45
2017-12-15T14:04:02.286Z,92931.02
2017-12-15T14:06:30.633Z,92928.58
2017-12-15T14:08:59.006Z,92937.27
2017-12-15T14:11:27.365Z,92940.16
2017-12-15T14:13:55.697Z,92954.36
2017-12-15T14:16:24.062Z,92953.22
2017-12-15T14:18:52.403Z,92952.70
2017-12-15T14:21:20.782Z,92949.30
2017-12-15T14:23:49.120Z,92961.73
2017-12-15T14:26:17.469Z,92963.91
2017-12-15T14:28:45.819Z,92967.25
2017-12-15T14:31:14.167Z,92980.20
2017-12-15T14:33:42.593Z,92980.31
2017-12-15T14:36:10.936Z,92976.33
2017-12-15T14:38:39.292Z,92977.57
2017-12-15T14:41:07.635Z,92985.55
2017-12-15T14:43:36.007Z,92981.59
2017-12-15T14:46:04.406Z,92992.88
2017-12-15T14:48:32.752Z,92987.50
2017-12-15T14:51:01.228Z,92991.20
2017-12-15T14:53:29.567Z,92996.41
2017-12-15T14:55:57.949Z,92999.12
2017-12-15T14:58:26.351Z,93004.30
2017-12-15T15:00:54.694Z,93010.71
2017-12-15T15:03:23.054Z,93011.50
2017-12-15T15:05:51.399Z,93016.45
2017-12-15T15:08:19.744Z,93025.32
2017-12-15T15:10:48.290Z,93034.70
2017-12-15T15:13:16.632Z,93038.69
2017-12-15T15:15:44.983Z,93038.77
2017-12-15T15:18:13.322Z,93037.64
2017-12-15T15:20:41.665Z,93050.32
2017-12-15T15:23:10.040Z,93047.94
2017-12-15T15:25:38.382Z,93046.58
2017-12-15T15:28:06.751Z,93046.12
2017-12-15T15:30:35.091Z,93051.11
2017-12-15T15:33:03.438Z,93052.22
2017-12-15T15:35:31.920Z,93053.28
2017-12-15T15:38:00.263Z,93051.39
2017-12-15T15:40:28.601Z,93049.70
2017-12-15T15:42:56.946Z,93051.80
2017-12-15T15:45:25.312Z,93050.13
2017-12-15T15:47:53.725Z,93048.66
2017-12-15T15:50:22.054Z,93047.19
2017-12-15T15:52:50.399Z,93057.69
2017-12-15T15:55:18.812Z,93052.14
2017-12-15T15:57:47.141Z,93064.63
2017-12-15T16:00:15.535Z,93063.80
2017-12-15T16:02:43.877Z,93068.22
2017-12-15T16:05:12.230Z,93069.50
2017-12-15T16:07:40.567Z,93083.18
2017-12-15T16:10:08.915Z,93088.14
2017-12-15T16:12:37.287Z,93087.47
2017-12-15T16:15:05.631Z,93086.48
2017-12-15T16:17:33.965Z,93095.44
2017-12-15T16:20:02.366Z,93097.59
2017-12-15T16:22:30.763Z,93092.70
2017-12-15T16:24:59.135Z,93097.97
2017-12-15T16:27:27.526Z,93101.14
2017-12-15T16:29:56.019Z,93097.59
2017-12-15T16:32:24.359Z,93099.47
2017-12-15T16:34:52.719Z,93096.23
2017-12-15T16:37:21.053Z,93103.74
2017-12-15T16:39:49.419Z,93111.41
2017-12-15T16:42:17.862Z,93118.66
2017-12-15T16:44:46.203Z,93112.71
2017-12-15T16:47:14.573Z,93119.48
2017-12-15T16:49:42.928Z,93118.27
2017-12-15T16:52:11.272Z,93116.02
2017-12-15T16:54:39.828Z,93113.44
2017-12-15T16:57:08.165Z,93112.36
2017-12-15T16:59:36.514Z,93105.15
2017-12-15T17:02:04.861Z,93103.24
2017-12-15T17:04:33.226Z,93110.47
2017-12-15T17:07:01.629Z,93106.44
2017-12-15T17:09:29.991Z,93117.51
2017-12-15T17:11:58.370Z,93112.36
2017-12-15T17:14:26.723Z,93118.89
2017-12-15T17:16:55.152Z,93115.81
2017-12-15T17:19:23.473Z,93125.07
2017-12-15T17:21:51.867Z,93121.16
2017-12-15T17:24:20.197Z,93120.75
2017-12-15T17:26:48.556Z,93119.28
2017-12-15T17:29:16.925Z,93126.67
2017-12-15T17:31:45.270Z,93130.94
2017-12-15T17:34:13.630Z,93129.91
2017-12-15T17:36:41.968Z,93144.98
2017-12-15T17:39:10.295Z,93151.92
2017-12-15T17:41:38.684Z,93157.46
2017-12-15T17:44:07.031Z,93157.59
2017-12-15T17:46:35.374Z,93162.91
2017-12-15T17:49:03.746Z,93161.76
2017-12-15T17:51:32.066Z,93160.61
2017-12-15T17:54:00.454Z,93166.98
2017-12-15T17:56:28.812Z,93170.66
2017-12-15T17:58:57.187Z,93173.50
2017-12-15T18:01:25.512Z,93178.50
2017-12-15T18:03:53.865Z,93184.80
2017-12-15T18:06:22.235Z,93185.77
2017-12-15T18:08:50.610Z,93187.42
2017-12-15T18:11:18.975Z,93183.89
2017-12-15T18:13:47.319Z,93189.70
2017-12-15T18:16:15.685Z,93187.15
2017-12-15T18:18:44.060Z,93183.97
2017-12-15T18:21:12.406Z,93195.67
2017-12-15T18:23:40.756Z,93194.74
2017-12-15T18:26:09.116Z,93208.64
2017-12-15T18:28:37.467Z,93216.72
2017-12-15T18:31:05.861Z,93216.64
2017-12-15T18:33:34.203Z,93225.73
2017-12-15T18:36:02.556Z,93223.81
2017-12-15T18:38:30.893Z,93225.42
2017-12-15T18:40:59.233Z,93224.47
2017-12-15T18:43:27.690Z,93231.72
2017-12-15T18:45:56.035Z,93236.37
2017-12-15T18:48:24.386Z,93237.77
2017-12-15T18:50:52.715Z,93233.80
2017-12-15T18:53:21.066Z,93235.69
2017-12-15T18:55:49.455Z,93237.66
2017-12-15T18:58:17.795Z,93238.38
2017-12-15T19:00:46.136Z,93238.64
2017-12-15T19:03:14.519Z,93244.20
2017-12-15T19:05:42.869Z,93253.23
2017-12-15T19:08:11.263Z,93259.36
2017-12-15T19:10:39.640Z,93258.80
2017-12-15T19:13:07.989Z,93260.98
2017-12-15T19:15:36.342Z,93273.09
2017-12-15T19:18:04.706Z,93274.94
2017-12-15T19:20:33.120Z,93276.85
2017-12-15T19:23:01.535Z,93276.48
2017-12-15T19:25:29.891Z,93284.59
2017-12-15T19:27:58.357Z,93287.81
2017-12-15T19:30:26.697Z,93292.10
2017-12-15T19:32:55.066Z,93290.62
2017-12-15T19:35:23.414Z,93296.42
2017-12-15T19:37:51.751Z,93290.77
2017-12-15T19:40:20.104Z,93299.06
2017-12-15T19:42:48.455Z,93298.70
2017-12-15T19:45:16.828Z,93303.94
2017-12-15T19:47:45.181Z,93308.45
2017-12-15T19:50:13.527Z,93307.61
2017-12-15T19:52:41.864Z,93304.66
2017-12-15T19:55:10.212Z,93309.04
2017-12-15T19:57:38.662Z,93311.65
2017-12-15T20:00:07.040Z,93311.84
2017-12-15T20:02:35.409Z,93313.17
2017-12-15T20:05:03.752Z,93313.95
2017-12-15T20:07:32.087Z,93311.27
2017-12-15T20:10:00.578Z,93309.23
2017-12-15T20:12:28.911Z,93309.69
2017-12-15T20:14:57.253Z,93308.30
2017-12-15T20:17:25.598Z,93314.69
2017-12-15T20:19:53.952Z,93320.58
2017-12-15T20:22:22.344Z,93325.52
2017-12-15T20:24:50.684Z,93325.09
2017-12-15T20:27:19.052Z,93333.34
2017-12-15T20:29:47.414Z,93333.32
2017-12-15T20:32:15.796Z,93324.69
2017-12-15T20:34:44.177Z,93331.23
2017-12-15T20:37:12.572Z,93329.54
2017-12-15T20:39:40.928Z,93340.83
2017-12-15T20:42:09.274Z,93347.53
2017-12-15T20:44:37.606Z,93343.79
2017-12-15T20:47:06.002Z,93345.02
2017-12-15T20:49:34.351Z,93350.83
2017-12-15T20:52:02.707Z,93354.91
2017-12-15T20:54:31.086Z,93359.02
2017-12-15T20:56:59.434Z,93357.31
2017-12-15T20:59:27.803Z,93355.66
2017-12-15T21:01:56.151Z,93356.64
2017-12-15T21:04:24.537Z,93357.20
2017-12-15T21:06:52.878Z,93358.00
2017-12-15T21:09:21.267Z,93355.53
2017-12-15T21:11:49.641Z,93353.05
2017-12-15T21:14:18.001Z,93350.67
2017-12-15T21:16:46.332Z,93360.39
2017-12-15T21:19:14.678Z,93363.48
2017-12-15T21:21:43.036Z,93365.57
2017-12-15T21:24:11.399Z,93370.69
2017-12-15T21:26:39.806Z,93372.58
2017-12-15T21:29:08.151Z,93367.66
2017-12-15T21:31:36.504Z,93371.55
2017-12-15T21:34:04.849Z,93368.89
2017-12-15T21:36:33.231Z,93369.56
2017-12-15T21:39:01.594Z,93366.71
2017-12-15T21:41:29.954Z,93373.04
2017-12-15T21:43:58.298Z,93373.52
2017-12-15T21:46:26.721Z,93382.83
2017-12-15T21:48:55.087Z,93383.11
2017-12-15T21:51:23.422Z,93378.45
2017-12-15T21:53:51.771Z,93385.91
2017-12-15T21:56:20.188Z,93383.58
2017-12-15T21:58:48.527Z,93388.50
2017-12-15T22:01:16.907Z,93384.34
2017-12-15T22:03:45.247Z,93389.77
2017-12-15T22:06:13.665Z,93392.66
2017-12-15T22:08:42.001Z,93389.22
2017-12-15T22:11:10.359Z,93391.45
2017-12-15T22:13:38.740Z,93393.13
2017-12-15T22:16:07.082Z,93394.45
2017-12-15T22:18:35.432Z,93400.45
2017-12-15T22:21:03.777Z,93402.77
2017-12-15T22:23:32.145Z,93409.94
2017-12-15T22:26:00.518Z,93414.80
2017-12-15T22:28:28.922Z,93418.67
2017-12-15T22:30:57.317Z,93421.39
2017-12-15T22:33:25.674Z,93421.59
2017-12-15T22:35:54.008Z,93422.53
2017-12-15T22:38:22.381Z,93425.20
2017-12-15T22:40:50.767Z,93431.56
2017-12-15T22:43:19.111Z,93434.73
2017-12-15T22:45:47.463Z,93439.76
2017-12-15T22:48:15.802Z,93442.58
2017-12-15T22:50:44.182Z,93440.88
2017-12-15T22:53:12.527Z,93447.67
2017-12-15T22:55:40.890Z,93448.88
2017-12-15T22:58:09.227Z,93453.83
2017-12-15T23:00:37.565Z,93454.68
2017-12-15T23:03:05.953Z,93463.73
2017-12-15T23:05:34.322Z,93466.52
2017-12-15T23:08:02.677Z,93462.77
2017-12-15T23:10:31.018Z,93464.25
2017-12-15T23:12:59.712Z,93469.37
2017-12-15T23:15:28.104Z,93480.67
2017-12-15T23:17:56.450Z,93472.62
2017-12-15T23:20:24.781Z,93477.22
2017-12-15T23:22:53.119Z,93474.78
2017-12-15T23:25:21.462Z,93476.64
2017-12-15T23:27:49.834Z,93477.34
2017-12-15T23:30:18.171Z,93479.52
2017-12-15T23:32:46.547Z,93479.14
2017-12-15T23:35:14.884Z,93473.84
2017-12-15T23:37:43.252Z,93480.39
2017-12-15T23:40:11.617Z,93473.53
2017-12-15T23:42:39.943Z,93464.45
2017-12-15T23:45:08.381Z,93472.36
2017-12-15T23:47:36.766Z,93474.55
2017-12-15T23:50:05.113Z,93477.90
2017-12-15T23:52:33.516Z,93476.95
2017-12-15T23:55:13.535Z,93475.17
2017-12-15T23:57:41.915Z,93476.71
